createdAt,value
2019-04-21T00:01:10.206Z,6.22
2019-04-21T00:03:45.349Z,6.37
2019-04-21T00:06:30.155Z,7.75
2019-04-21T00:09:04.281Z,8.35
2019-04-21T00:11:37.791Z,6.05
2019-04-21T00:13:56.421Z,6.37
2019-04-21T00:16:17.154Z,6.05
2019-04-21T00:18:58.047Z,8.85
2019-04-21T00:21:31.524Z,5.97
2019-04-21T00:24:30.483Z,5.45
2019-04-21T00:27:03.542Z,6.03
2019-04-21T00:29:40.995Z,7.75
2019-04-21T00:32:02.471Z,6.87
2019-04-21T00:34:19.570Z,6.80
2019-04-21T00:37:00.177Z,6.78
2019-04-21T00:39:48.881Z,6.28
2019-04-21T00:42:09.805Z,5.62
2019-04-21T00:44:34.154Z,6.25
2019-04-21T00:47:08.458Z,6.33
2019-04-21T00:49:47.874Z,8.00
2019-04-21T00:52:30.273Z,5.50
2019-04-21T00:55:10.116Z,7.78
2019-04-21T00:57:34.257Z,5.78
2019-04-21T01:00:01.248Z,5.33
2019-04-21T01:02:33.027Z,6.25
2019-04-21T01:05:06.432Z,6.70
2019-04-21T01:07:39.808Z,5.25
2019-04-21T01:09:59.802Z,5.47
2019-04-21T01:12:38.578Z,5.78
2019-04-21T01:15:10.767Z,6.35
2019-04-21T01:17:41.800Z,5.70
2019-04-21T01:20:01.435Z,5.05
2019-04-21T01:22:20.501Z,5.85
2019-04-21T01:25:01.402Z,7.20
2019-04-21T01:27:43.892Z,8.33
2019-04-21T01:30:15.073Z,6.42
2019-04-21T01:32:51.140Z,5.37
2019-04-21T01:35:16.401Z,5.75
2019-04-21T01:37:49.642Z,6.80
2019-04-21T01:40:25.956Z,7.55
2019-04-21T01:42:50.777Z,6.47
2019-04-21T01:45:21.327Z,6.17
2019-04-21T01:47:54.965Z,6.12
2019-04-21T01:50:25.477Z,6.47
2019-04-21T01:53:11.125Z,7.70
2019-04-21T01:56:01.892Z,7.37
2019-04-21T01:58:25.463Z,4.90
2019-04-21T02:01:02.079Z,6.35
2019-04-21T02:08:36.493Z,5.40
2019-04-21T02:11:20.309Z,5.22
2019-04-21T02:13:53.509Z,6.90
2019-04-21T02:16:18.210Z,6.97
2019-04-21T02:18:52.612Z,5.53
2019-04-21T02:21:15.354Z,7.00
2019-04-21T02:26:24.960Z,5.72
2019-04-21T02:34:11.281Z,7.67
2019-04-21T02:39:15.917Z,6.03
2019-04-21T02:41:51.750Z,5.60
2019-04-21T02:44:32.732Z,7.30
2019-04-21T02:49:22.369Z,5.55
2019-04-21T02:51:54.474Z,5.17
2019-04-21T02:56:59.098Z,5.55
2019-04-21T03:05:13.401Z,7.50
2019-04-21T03:07:46.533Z,7.03
2019-04-21T03:10:10.783Z,6.45
2019-04-21T03:12:41.470Z,8.05
2019-04-21T03:15:29.318Z,10.50
2019-04-21T03:17:54.371Z,7.67
2019-04-21T03:20:17.007Z,6.78
2019-04-21T03:27:57.300Z,7.87
2019-04-21T03:33:40.586Z,7.47
2019-04-21T03:37:58.516Z,8.13
2019-04-21T03:43:01.851Z,5.92
2019-04-21T03:45:39.268Z,6.40
2019-04-21T03:48:01.160Z,6.80
2019-04-21T03:53:03.453Z,8.45
2019-04-21T03:55:58.684Z,7.30
2019-04-21T03:58:05.595Z,6.40
2019-04-21T04:06:18.039Z,6.15
2019-04-21T04:09:06.396Z,5.70
2019-04-21T04:16:47.730Z,7.45
2019-04-21T04:21:41.602Z,6.78
2019-04-21T04:26:40.968Z,10.65
2019-04-21T04:29:12.463Z,8.23
2019-04-21T04:34:12.706Z,8.20
2019-04-21T04:36:58.959Z,8.63
2019-04-21T04:39:36.008Z,8.88
2019-04-21T04:44:57.581Z,9.98
2019-04-21T04:47:16.809Z,10.43
2019-04-21T04:52:31.437Z,9.08
2019-04-21T04:59:49.878Z,11.48
2019-04-21T05:02:29.848Z,11.65
2019-04-21T05:09:59.400Z,9.40
2019-04-21T05:12:36.410Z,8.80
2019-04-21T05:14:59.376Z,7.67
2019-04-21T05:17:41.464Z,7.72
2019-04-21T05:20:08.867Z,7.97
2019-04-21T05:22:31.449Z,7.47
2019-04-21T05:24:55.407Z,7.47
2019-04-21T05:27:38.313Z,8.60
2019-04-21T05:30:23.381Z,7.95
2019-04-21T05:32:52.983Z,10.23
2019-04-21T05:35:40.549Z,7.55
2019-04-21T05:38:10.233Z,9.60
2019-04-21T05:40:41.420Z,12.65
2019-04-21T05:43:26.399Z,12.30
2019-04-21T05:45:51.954Z,10.38
2019-04-21T05:48:31.644Z,10.18
2019-04-21T05:50:53.648Z,14.78
2019-04-21T05:53:29.649Z,10.38
2019-04-21T05:56:04.978Z,8.78
2019-04-21T05:58:34.747Z,10.85
2019-04-21T06:01:24.377Z,9.68
2019-04-21T06:06:16.427Z,10.15
2019-04-21T06:08:37.315Z,13.43
2019-04-21T06:11:19.221Z,10.65
2019-04-21T06:13:48.255Z,10.85
2019-04-21T06:16:20.184Z,8.85
2019-04-21T06:18:47.054Z,8.90
2019-04-21T06:21:18.945Z,7.97
2019-04-21T06:23:47.903Z,7.22
2019-04-21T06:26:46.923Z,10.93
2019-04-21T06:29:03.928Z,6.97
2019-04-21T06:31:33.771Z,8.18
2019-04-21T06:34:08.222Z,8.23
2019-04-21T06:36:43.913Z,14.90
2019-04-21T06:39:27.544Z,14.33
2019-04-21T06:41:58.490Z,13.80
2019-04-21T06:44:16.859Z,7.70
2019-04-21T06:46:44.671Z,12.28
2019-04-21T06:49:17.324Z,9.68
2019-04-21T06:51:55.982Z,9.65
2019-04-21T06:54:23.833Z,10.75
2019-04-21T06:56:51.346Z,12.05
2019-04-21T06:59:20.834Z,11.85
2019-04-21T07:01:56.713Z,8.25
2019-04-21T07:04:29.611Z,8.15
2019-04-21T07:06:59.438Z,9.03
2019-04-21T07:09:31.334Z,8.68
2019-04-21T07:11:59.966Z,7.65
2019-04-21T07:14:32.089Z,13.25
2019-04-21T07:17:15.976Z,9.38
2019-04-21T07:19:46.168Z,9.20
2019-04-21T07:22:15.767Z,11.75
2019-04-21T07:24:36.790Z,9.18
2019-04-21T07:27:11.690Z,9.53
2019-04-21T07:32:11.810Z,9.48
2019-04-21T07:34:46.152Z,9.58
2019-04-21T07:37:13.901Z,9.15
2019-04-21T07:39:45.072Z,9.28
2019-04-21T07:42:13.404Z,10.43
2019-04-21T07:44:44.670Z,8.50
2019-04-21T07:47:23.502Z,9.18
2019-04-21T07:50:00.846Z,8.60
2019-04-21T07:52:46.919Z,8.30
2019-04-21T07:55:21.059Z,10.28
2019-04-21T07:57:36.659Z,9.55
2019-04-21T08:00:21.045Z,11.40
2019-04-21T08:07:56.772Z,11.03
2019-04-21T08:10:15.993Z,9.30
2019-04-21T08:12:49.722Z,10.18
2019-04-21T08:15:27.191Z,7.80
2019-04-21T08:17:57.089Z,7.75
2019-04-21T08:20:24.060Z,8.45
2019-04-21T08:23:17.003Z,8.50
2019-04-21T08:25:32.743Z,8.75
2019-04-21T08:28:01.549Z,7.90
2019-04-21T08:30:32.229Z,8.98
2019-04-21T08:33:10.654Z,7.90
2019-04-21T08:38:05.349Z,10.18
2019-04-21T08:40:36.665Z,8.83
2019-04-21T08:43:08.825Z,8.35
2019-04-21T08:45:43.303Z,8.10
2019-04-21T08:48:12.435Z,7.97
2019-04-21T08:50:36.301Z,7.97
2019-04-21T08:53:19.681Z,8.70
2019-04-21T08:56:04.129Z,9.88
2019-04-21T09:01:21.970Z,9.13
2019-04-21T09:03:58.753Z,10.05
2019-04-21T09:06:42.066Z,8.78
2019-04-21T09:09:04.643Z,9.10
2019-04-21T09:11:34.824Z,8.73
2019-04-21T09:14:07.281Z,8.68
2019-04-21T09:16:35.418Z,9.70
2019-04-21T09:19:04.715Z,12.20
2019-04-21T09:21:43.684Z,9.03
2019-04-21T09:24:11.695Z,8.85
2019-04-21T09:26:43.137Z,11.33
2019-04-21T09:29:04.320Z,8.95
2019-04-21T09:31:31.947Z,9.30
2019-04-21T09:34:02.338Z,8.70
2019-04-21T09:36:37.802Z,9.38
2019-04-21T09:39:10.825Z,8.88
2019-04-21T09:41:37.386Z,8.93
2019-04-21T09:44:07.832Z,8.73
2019-04-21T09:46:41.747Z,8.33
2019-04-21T09:49:12.149Z,8.63
2019-04-21T09:51:39.620Z,9.10
2019-04-21T09:54:15.984Z,8.93
2019-04-21T09:56:50.094Z,8.25
2019-04-21T09:59:20.667Z,8.50
2019-04-21T10:01:55.862Z,12.37
2019-04-21T10:04:14.563Z,9.53
2019-04-21T10:06:45.286Z,20.30
2019-04-21T10:09:18.398Z,20.52
2019-04-21T10:11:46.104Z,11.95
2019-04-21T10:14:15.741Z,13.58
2019-04-21T10:19:27.442Z,10.55
2019-04-21T10:21:59.487Z,11.12
2019-04-21T10:24:28.567Z,11.45
2019-04-21T10:26:58.999Z,11.50
2019-04-21T10:29:31.290Z,10.08
2019-04-21T10:31:59.949Z,10.95
2019-04-21T10:34:29.512Z,9.73
2019-04-21T10:36:59.175Z,10.18
2019-04-21T10:41:59.588Z,9.58
2019-04-21T10:44:32.487Z,14.93
2019-04-21T10:47:04.673Z,11.80
2019-04-21T10:49:53.144Z,9.35
2019-04-21T10:52:29.675Z,10.30
2019-04-21T10:55:19.089Z,9.23
2019-04-21T10:57:34.915Z,14.68
2019-04-21T11:00:18.959Z,14.83
2019-04-21T11:03:22.802Z,13.30
2019-04-21T11:05:58.942Z,11.33
2019-04-21T11:08:34.168Z,11.97
2019-04-21T11:11:01.514Z,13.88
2019-04-21T11:13:32.505Z,11.83
2019-04-21T11:16:03.413Z,11.95
2019-04-21T11:18:39.891Z,11.73
2019-04-21T11:21:13.277Z,12.30
2019-04-21T11:23:43.889Z,12.30
2019-04-21T11:26:13.996Z,11.65
2019-04-21T11:28:45.098Z,11.93
2019-04-21T11:31:18.683Z,12.35
2019-04-21T11:33:47.128Z,13.22
2019-04-21T11:36:17.396Z,10.08
2019-04-21T11:39:05.385Z,12.95
2019-04-21T11:41:21.522Z,11.55
2019-04-21T11:43:51.306Z,15.80
2019-04-21T11:46:22.539Z,12.30
2019-04-21T11:48:52.573Z,10.38
2019-04-21T11:51:22.781Z,15.90
2019-04-21T11:53:52.871Z,13.15
2019-04-21T11:56:23.092Z,11.28
2019-04-21T11:58:54.103Z,10.43
2019-04-21T12:01:25.539Z,10.75
2019-04-21T12:03:55.717Z,12.03
2019-04-21T12:06:44.523Z,14.07
2019-04-21T12:09:18.963Z,12.53
2019-04-21T12:15:03.908Z,13.62
2019-04-21T12:17:34.163Z,10.20
2019-04-21T12:20:08.629Z,10.43
2019-04-21T12:22:39.083Z,10.72
2019-04-21T12:25:11.237Z,13.85
2019-04-21T12:27:41.670Z,10.82
2019-04-21T12:30:13.768Z,10.68
2019-04-21T12:32:58.102Z,10.70
2019-04-21T12:35:28.120Z,12.03
2019-04-21T12:37:58.520Z,10.75
2019-04-21T12:40:28.460Z,10.60
2019-04-21T12:42:58.824Z,14.55
2019-04-21T12:45:29.646Z,10.82
2019-04-21T12:48:00.058Z,13.55
2019-04-21T12:50:30.067Z,12.25
2019-04-21T12:52:59.947Z,9.50
2019-04-21T12:55:33.860Z,10.80
2019-04-21T12:58:01.403Z,11.33
2019-04-21T13:00:31.292Z,10.48
2019-04-21T13:03:01.612Z,10.28
2019-04-21T13:05:31.911Z,9.53
2019-04-21T13:08:01.659Z,10.72
2019-04-21T13:10:32.284Z,9.53
2019-04-21T13:13:12.071Z,9.75
2019-04-21T13:15:41.069Z,10.03
2019-04-21T13:18:12.251Z,10.43
2019-04-21T13:20:44.345Z,10.08
2019-04-21T13:23:13.932Z,9.60
2019-04-21T13:26:16.173Z,9.93
2019-04-21T13:28:28.316Z,9.60
2019-04-21T13:31:00.088Z,9.55
2019-04-21T13:33:31.220Z,8.93
2019-04-21T13:36:02.725Z,9.40
2019-04-21T13:38:50.408Z,9.65
2019-04-21T13:41:31.432Z,9.30
2019-04-21T13:43:50.765Z,9.03
2019-04-21T13:54:09.633Z,9.08
2019-04-21T13:56:24.841Z,8.40
2019-04-21T13:58:58.261Z,8.93
2019-04-21T14:01:46.098Z,8.75
2019-04-21T14:04:16.073Z,7.92
2019-04-21T14:06:47.914Z,7.87
2019-04-21T14:47:29.600Z,7.94
2019-04-21T14:50:15.529Z,8.53
2019-04-21T14:52:48.582Z,8.93
2019-04-21T14:55:20.821Z,9.08
2019-04-21T14:57:51.607Z,10.13
2019-04-21T15:00:24.708Z,8.53
2019-04-21T15:02:59.788Z,8.18
2019-04-21T15:05:39.800Z,8.13
2019-04-21T15:08:11.027Z,10.05
2019-04-21T15:10:40.963Z,9.98
2019-04-21T15:13:12.284Z,11.48
2019-04-21T15:15:42.117Z,9.43
2019-04-21T15:21:07.767Z,9.05
2019-04-21T15:31:37.659Z,11.97
2019-04-21T15:33:22.393Z,8.40
2019-04-21T15:38:58.059Z,8.58
2019-04-21T15:41:42.808Z,8.90
2019-04-21T15:47:22.192Z,7.70
2019-04-21T15:50:02.829Z,7.75
2019-04-21T15:52:33.832Z,8.40
2019-04-21T15:55:10.545Z,7.10
2019-04-21T15:57:48.906Z,7.58
2019-04-21T16:00:26.785Z,8.45
2019-04-21T16:03:07.104Z,6.90
2019-04-21T16:05:51.959Z,8.10
2019-04-21T16:08:16.274Z,7.22
2019-04-21T16:10:54.738Z,6.50
2019-04-21T16:13:25.685Z,7.00
2019-04-21T16:16:02.188Z,6.90
2019-04-21T16:18:34.251Z,7.42
2019-04-21T16:21:04.312Z,6.97
2019-04-21T16:23:34.169Z,7.72
2019-04-21T16:26:04.474Z,6.53
2019-04-21T16:28:41.678Z,7.30
2019-04-21T16:31:14.137Z,7.13
2019-04-21T16:33:45.226Z,10.38
2019-04-21T16:36:15.542Z,13.55
2019-04-21T16:38:47.167Z,6.97
2019-04-21T16:41:18.207Z,7.28
2019-04-21T16:43:49.192Z,7.35
2019-04-21T16:46:21.082Z,7.40
2019-04-21T16:49:58.101Z,7.05
2019-04-21T16:51:50.096Z,8.50
2019-04-21T16:54:22.454Z,6.62
2019-04-21T16:57:03.733Z,7.00
2019-04-21T16:59:35.192Z,8.55
2019-04-21T17:02:07.558Z,8.58
2019-04-21T17:04:38.226Z,6.85
2019-04-21T17:07:15.434Z,6.62
2019-04-21T17:09:46.393Z,11.22
2019-04-21T17:12:18.321Z,6.55
2019-04-21T17:15:04.394Z,6.75
2019-04-21T17:17:47.952Z,9.20
2019-04-21T17:19:55.610Z,10.13
2019-04-21T17:22:23.689Z,11.60
2019-04-21T17:24:54.277Z,11.15
2019-04-21T17:27:29.223Z,8.50
2019-04-21T17:29:58.976Z,6.92
2019-04-21T17:32:35.598Z,6.83
2019-04-21T17:35:00.132Z,6.92
2019-04-21T17:40:03.500Z,6.78
2019-04-21T17:42:42.167Z,7.45
2019-04-21T17:45:03.661Z,6.70
2019-04-21T17:47:44.899Z,8.35
2019-04-21T17:50:23.276Z,9.23
2019-04-21T17:53:14.487Z,7.28
2019-04-21T17:56:05.452Z,9.28
2019-04-21T17:58:33.862Z,6.55
2019-04-21T18:01:18.034Z,9.00
2019-04-21T18:06:07.505Z,9.20
2019-04-21T18:08:48.360Z,6.83
2019-04-21T18:11:06.007Z,6.75
2019-04-21T18:13:30.523Z,8.68
2019-04-21T18:16:09.654Z,6.42
2019-04-21T18:18:32.928Z,11.55
2019-04-21T18:21:10.222Z,9.73
2019-04-21T18:24:04.827Z,7.00
2019-04-21T18:26:39.435Z,9.43
2019-04-21T18:28:59.608Z,7.25
2019-04-21T18:31:33.802Z,7.92
2019-04-21T18:34:08.184Z,7.10
2019-04-21T18:36:46.379Z,7.50
2019-04-21T18:39:43.699Z,7.10
2019-04-21T18:42:21.242Z,8.78
2019-04-21T18:45:06.425Z,7.45
2019-04-21T18:47:31.805Z,7.03
2019-04-21T18:49:50.176Z,8.43
2019-04-21T18:52:40.531Z,7.53
2019-04-21T18:55:09.901Z,8.28
2019-04-21T18:57:36.542Z,7.83
2019-04-21T18:59:59.453Z,6.95
2019-04-21T19:02:38.433Z,9.68
2019-04-21T19:05:07.868Z,8.63
2019-04-21T19:07:58.425Z,7.25
2019-04-21T19:10:26.648Z,7.03
2019-04-21T19:15:27.196Z,8.20
2019-04-21T19:18:34.035Z,9.08
2019-04-21T19:20:34.912Z,7.72
2019-04-21T19:22:58.308Z,7.22
2019-04-21T19:25:31.475Z,8.03
2019-04-21T19:28:06.428Z,7.30
2019-04-21T19:30:42.857Z,8.18
2019-04-21T19:33:09.176Z,6.78
2019-04-21T19:35:25.679Z,8.50
2019-04-21T19:38:02.141Z,6.78
2019-04-21T19:40:40.605Z,7.85
2019-04-21T19:43:11.137Z,6.95
2019-04-21T19:45:45.111Z,10.78
2019-04-21T19:48:20.152Z,6.20
2019-04-21T19:50:54.322Z,6.70
2019-04-21T19:53:22.948Z,8.63
2019-04-21T19:55:38.284Z,8.95
2019-04-21T19:58:08.032Z,8.25
2019-04-21T20:00:37.752Z,6.53
2019-04-21T20:03:08.412Z,6.30
2019-04-21T20:05:46.713Z,6.80
2019-04-21T20:08:23.735Z,6.28
2019-04-21T20:11:00.632Z,6.42
2019-04-21T20:13:40.796Z,7.30
2019-04-21T20:16:03.756Z,9.75
2019-04-21T20:18:26.050Z,6.30
2019-04-21T20:20:48.116Z,6.05
2019-04-21T20:23:24.994Z,5.95
2019-04-21T20:25:54.900Z,8.63
2019-04-21T20:28:35.803Z,6.92
2019-04-21T20:31:17.634Z,6.80
2019-04-21T20:36:20.197Z,7.80
2019-04-21T20:38:35.289Z,6.90
2019-04-21T20:41:01.816Z,7.78
2019-04-21T20:43:47.323Z,6.90
2019-04-21T20:46:11.993Z,8.15
2019-04-21T20:48:45.246Z,7.47
2019-04-21T20:51:17.995Z,6.85
2019-04-21T20:53:47.602Z,8.28
2019-04-21T20:56:16.104Z,9.03
2019-04-21T20:58:55.445Z,7.80
2019-04-21T21:03:56.750Z,9.58
2019-04-21T21:06:26.160Z,8.35
2019-04-21T21:09:01.646Z,7.00
2019-04-21T21:11:43.353Z,7.47
2019-04-21T21:14:07.139Z,7.03
2019-04-21T21:21:37.769Z,6.92
2019-04-21T21:24:08.685Z,8.43
2019-04-21T21:26:47.206Z,6.92
2019-04-21T21:29:19.810Z,6.55
2019-04-21T21:31:47.481Z,5.97
2019-04-21T21:34:20.917Z,7.30
2019-04-21T21:36:49.474Z,6.28
2019-04-21T21:39:21.369Z,6.45
2019-04-21T21:41:45.131Z,6.78
2019-04-21T21:44:14.439Z,6.15
2019-04-21T21:46:53.846Z,5.80
2019-04-21T21:49:29.448Z,7.90
2019-04-21T21:51:56.589Z,9.53
2019-04-21T21:54:13.936Z,6.45
2019-04-21T21:56:44.701Z,6.10
2019-04-21T21:59:20.655Z,7.53
2019-04-21T22:01:50.722Z,5.83
2019-04-21T22:04:25.845Z,6.33
2019-04-21T22:06:57.555Z,9.63
2019-04-21T22:09:21.784Z,7.37
2019-04-21T22:11:55.146Z,5.78
2019-04-21T22:14:31.386Z,7.17
2019-04-21T22:17:10.875Z,6.62
2019-04-21T22:19:51.026Z,6.05
2019-04-21T22:22:15.666Z,6.80
2019-04-21T22:24:46.877Z,7.92
2019-04-21T22:26:59.514Z,6.50
2019-04-21T22:29:38.130Z,6.58
2019-04-21T22:32:09.399Z,6.60
2019-04-21T22:34:38.190Z,6.20
2019-04-21T22:37:21.679Z,5.83
2019-04-21T22:39:53.347Z,6.78
2019-04-21T22:42:15.809Z,6.08
2019-04-21T22:44:38.591Z,5.97
2019-04-21T22:47:14.097Z,5.97
2019-04-21T22:49:40.878Z,6.83
2019-04-21T22:52:18.733Z,5.28
2019-04-21T22:54:44.858Z,6.30
2019-04-21T22:57:18.459Z,8.08
2019-04-21T22:59:53.876Z,8.93
2019-04-21T23:02:23.743Z,6.47
2019-04-21T23:04:54.195Z,8.18
2019-04-21T23:07:22.263Z,5.45
2019-04-21T23:09:51.469Z,6.70
2019-04-21T23:14:58.512Z,7.55
2019-04-21T23:17:42.271Z,6.08
2019-04-21T23:20:17.300Z,5.78
2019-04-21T23:22:51.442Z,5.25
2019-04-21T23:25:15.467Z,6.22
2019-04-21T23:27:47.028Z,6.10
2019-04-21T23:30:26.085Z,5.37
2019-04-21T23:32:41.031Z,5.30
2019-04-21T23:35:11.420Z,6.58
2019-04-21T23:37:40.917Z,5.87
2019-04-21T23:40:12.673Z,6.35
2019-04-21T23:42:41.927Z,5.42
2019-04-21T23:45:10.643Z,5.60
2019-04-21T23:47:53.107Z,8.40
2019-04-21T23:50:27.799Z,7.37
2019-04-21T23:52:43.698Z,5.80
2019-04-21T23:55:13.632Z,7.12
